createdAt,value
2023-05-16T00:01:01.458Z,8.50
2023-05-16T00:03:28.044Z,9.48
2023-05-16T00:05:56.264Z,9.57
2023-05-16T00:08:22.886Z,9.32
2023-05-16T00:10:49.288Z,8.75
2023-05-16T00:13:16.179Z,9.63
2023-05-16T00:15:44.370Z,9.32
2023-05-16T00:18:14.689Z,8.45
2023-05-16T00:20:42.085Z,8.80
2023-05-16T00:23:08.624Z,8.80
2023-05-16T00:25:36.401Z,8.35
2023-05-16T00:28:03.028Z,8.88
2023-05-16T00:30:29.829Z,8.02
2023-05-16T00:32:56.509Z,9.40
2023-05-16T00:35:23.154Z,8.63
2023-05-16T00:37:50.998Z,8.43
2023-05-16T00:40:17.439Z,8.70
2023-05-16T00:42:43.941Z,7.78
2023-05-16T00:45:12.015Z,7.85
2023-05-16T00:47:38.534Z,7.38
2023-05-16T00:50:06.063Z,7.60
2023-05-16T00:52:33.633Z,7.47
2023-05-16T00:55:00.564Z,7.88
2023-05-16T00:57:27.647Z,7.65
2023-05-16T00:59:54.959Z,7.07
2023-05-16T01:02:21.914Z,6.70
2023-05-16T01:04:49.540Z,7.32
2023-05-16T01:07:15.957Z,6.32
2023-05-16T01:09:42.526Z,6.28
2023-05-16T01:12:24.216Z,5.97
2023-05-16T01:15:05.072Z,6.25
2023-05-16T01:17:57.438Z,5.70
2023-05-16T01:20:45.948Z,5.32
2023-05-16T01:23:31.017Z,5.60
2023-05-16T01:26:23.223Z,5.45
2023-05-16T01:28:51.260Z,4.82
2023-05-16T01:31:18.648Z,4.97
2023-05-16T01:33:45.417Z,5.75
2023-05-16T01:36:41.647Z,4.75
2023-05-16T01:39:26.923Z,4.47
2023-05-16T01:42:09.059Z,4.35
2023-05-16T01:44:43.304Z,4.35
2023-05-16T01:47:12.896Z,4.80
2023-05-16T01:49:46.383Z,5.05
2023-05-16T01:52:20.313Z,5.10
2023-05-16T01:54:49.667Z,6.22
2023-05-16T01:57:17.241Z,5.43
2023-05-16T01:59:45.776Z,5.97
2023-05-16T02:02:12.162Z,7.00
2023-05-16T02:04:39.729Z,7.18
2023-05-16T02:07:06.303Z,7.28
2023-05-16T02:09:32.836Z,7.75
2023-05-16T02:12:00.292Z,7.47
2023-05-16T02:14:26.965Z,6.80
2023-05-16T02:16:53.467Z,6.78
2023-05-16T02:19:21.041Z,7.13
2023-05-16T02:21:47.451Z,6.90
2023-05-16T02:24:14.257Z,7.50
2023-05-16T02:26:41.035Z,6.88
2023-05-16T02:29:07.580Z,7.10
2023-05-16T02:31:34.933Z,6.93
2023-05-16T02:34:01.679Z,6.80
2023-05-16T02:36:28.407Z,5.78
2023-05-16T02:38:54.844Z,5.80
2023-05-16T02:41:22.231Z,5.72
2023-05-16T02:43:49.578Z,5.88
2023-05-16T02:46:33.620Z,5.70
2023-05-16T02:49:00.603Z,3.95
2023-05-16T02:51:28.878Z,4.50
2023-05-16T02:53:59.945Z,3.95
2023-05-16T02:56:26.565Z,4.20
2023-05-16T02:58:54.409Z,4.47
2023-05-16T03:01:21.133Z,3.83
2023-05-16T03:03:47.827Z,3.30
2023-05-16T03:06:14.431Z,3.15
2023-05-16T03:08:41.841Z,3.08
2023-05-16T03:11:08.252Z,2.80
2023-05-16T03:13:35.111Z,2.92
2023-05-16T03:16:02.111Z,2.95
2023-05-16T03:18:28.665Z,2.38
2023-05-16T03:20:55.431Z,2.00
2023-05-16T03:23:22.379Z,2.60
2023-05-16T03:25:49.041Z,2.97
2023-05-16T03:28:16.941Z,2.45
2023-05-16T03:30:43.756Z,2.13
2023-05-16T03:33:10.312Z,2.22
2023-05-16T03:35:37.064Z,2.10
2023-05-16T03:38:03.844Z,2.38
2023-05-16T03:40:32.999Z,2.08
2023-05-16T03:42:59.430Z,2.28
2023-05-16T03:45:26.668Z,1.92
2023-05-16T03:47:53.602Z,2.00
2023-05-16T03:50:20.043Z,2.70
2023-05-16T03:52:46.521Z,2.35
2023-05-16T03:55:14.999Z,2.90
2023-05-16T03:57:44.873Z,3.10
2023-05-16T04:00:12.853Z,2.92
2023-05-16T04:02:44.428Z,3.60
2023-05-16T04:05:12.472Z,3.17
2023-05-16T04:07:39.425Z,3.30
2023-05-16T04:10:06.542Z,3.60
2023-05-16T04:12:33.418Z,3.45
2023-05-16T04:14:59.845Z,2.80
2023-05-16T04:17:26.815Z,2.85
2023-05-16T04:19:53.308Z,2.20
2023-05-16T04:22:22.832Z,2.33
2023-05-16T04:24:49.885Z,1.70
2023-05-16T04:27:16.559Z,1.88
2023-05-16T04:29:43.106Z,1.73
2023-05-16T04:32:09.870Z,1.83
2023-05-16T04:34:39.876Z,1.77
2023-05-16T04:37:07.640Z,2.10
2023-05-16T04:39:35.704Z,1.70
2023-05-16T04:42:04.275Z,2.05
2023-05-16T04:44:31.008Z,1.83
2023-05-16T04:46:57.761Z,2.00
2023-05-16T04:49:24.322Z,2.13
2023-05-16T04:51:50.914Z,2.40
2023-05-16T04:54:17.400Z,2.35
2023-05-16T04:56:43.939Z,2.33
2023-05-16T04:59:10.674Z,2.53
2023-05-16T05:01:37.245Z,2.45
2023-05-16T05:04:04.332Z,2.67
2023-05-16T05:06:31.462Z,2.40
2023-05-16T05:08:58.316Z,2.83
2023-05-16T05:11:24.940Z,2.60
2023-05-16T05:13:52.979Z,2.83
2023-05-16T05:16:19.616Z,2.72
2023-05-16T05:18:46.158Z,2.65
2023-05-16T05:21:12.671Z,2.97
2023-05-16T05:23:40.305Z,3.00
2023-05-16T05:26:06.825Z,2.45
2023-05-16T05:28:33.672Z,2.70
2023-05-16T05:31:00.528Z,3.53
2023-05-16T05:33:29.261Z,2.83
2023-05-16T05:35:56.030Z,3.20
2023-05-16T05:38:23.149Z,3.40
2023-05-16T05:40:49.760Z,3.30
2023-05-16T05:43:16.198Z,3.20
2023-05-16T05:45:44.488Z,3.35
2023-05-16T05:48:12.812Z,3.08
2023-05-16T05:50:40.082Z,3.90
2023-05-16T05:53:06.693Z,3.42
2023-05-16T05:55:33.283Z,3.33
2023-05-16T05:57:59.765Z,3.40
2023-05-16T06:00:26.377Z,3.17
2023-05-16T06:02:53.385Z,3.17
2023-05-16T06:05:20.179Z,4.05
2023-05-16T06:07:46.580Z,3.63
2023-05-16T06:10:13.151Z,3.90
2023-05-16T06:12:39.545Z,5.07
2023-05-16T06:15:06.697Z,5.00
2023-05-16T06:17:33.642Z,4.88
2023-05-16T06:20:00.142Z,5.05
2023-05-16T06:22:26.860Z,5.03
2023-05-16T06:24:53.380Z,5.22
2023-05-16T06:27:20.144Z,5.10
2023-05-16T06:29:46.659Z,5.60
2023-05-16T06:32:13.632Z,5.25
2023-05-16T06:34:40.090Z,5.13
2023-05-16T06:37:06.708Z,4.70
2023-05-16T06:39:33.664Z,5.53
2023-05-16T06:42:00.110Z,4.10
2023-05-16T06:44:27.887Z,4.40
2023-05-16T06:46:54.405Z,3.88
2023-05-16T06:49:21.212Z,3.28
2023-05-16T06:51:47.765Z,3.38
2023-05-16T06:54:14.182Z,3.22
2023-05-16T06:56:40.749Z,3.70
2023-05-16T06:59:07.436Z,3.00
2023-05-16T07:01:33.966Z,3.60
2023-05-16T07:04:00.467Z,2.80
2023-05-16T07:06:27.144Z,2.83
2023-05-16T07:08:53.580Z,2.50
2023-05-16T07:11:20.430Z,2.95
2023-05-16T07:13:47.275Z,2.67
2023-05-16T07:16:13.834Z,2.78
2023-05-16T07:18:40.708Z,3.75
2023-05-16T07:21:08.159Z,2.45
2023-05-16T07:23:34.611Z,2.45
2023-05-16T07:26:01.123Z,2.65
2023-05-16T07:28:27.560Z,2.30
2023-05-16T07:30:55.072Z,2.10
2023-05-16T07:33:21.478Z,2.67
2023-05-16T07:35:48.206Z,2.95
2023-05-16T07:38:15.029Z,2.33
2023-05-16T07:40:41.864Z,2.90
2023-05-16T07:43:08.435Z,2.30
2023-05-16T07:45:35.509Z,1.92
2023-05-16T07:48:02.032Z,2.00
2023-05-16T07:50:29.104Z,1.80
2023-05-16T07:52:55.731Z,1.80
2023-05-16T07:55:22.238Z,2.00
2023-05-16T07:57:50.210Z,1.70
2023-05-16T08:00:17.782Z,2.28
2023-05-16T08:02:44.593Z,2.25
2023-05-16T08:05:11.286Z,2.30
2023-05-16T08:07:37.793Z,2.20
2023-05-16T08:10:04.912Z,2.53
2023-05-16T08:12:31.986Z,2.30
2023-05-16T08:14:58.432Z,2.15
2023-05-16T08:17:24.937Z,2.50
2023-05-16T08:19:51.397Z,2.13
2023-05-16T08:22:18.041Z,1.40
2023-05-16T08:24:44.858Z,1.83
2023-05-16T08:27:12.124Z,2.38
2023-05-16T08:29:38.570Z,2.50
2023-05-16T08:32:06.501Z,1.83
2023-05-16T08:34:33.769Z,1.95
2023-05-16T08:37:00.488Z,1.90
2023-05-16T08:39:27.514Z,1.60
2023-05-16T08:41:54.119Z,1.40
2023-05-16T08:44:22.069Z,2.10
2023-05-16T08:46:56.586Z,1.80
2023-05-16T08:49:26.840Z,1.55
2023-05-16T08:51:58.584Z,1.42
2023-05-16T08:54:27.442Z,1.30
2023-05-16T08:56:55.173Z,1.40
2023-05-16T08:59:21.757Z,1.30
2023-05-16T09:01:48.985Z,1.27
2023-05-16T09:04:16.327Z,1.30
2023-05-16T09:06:43.412Z,1.23
2023-05-16T09:09:12.803Z,1.27
2023-05-16T09:11:39.713Z,1.83
2023-05-16T09:14:06.243Z,1.27
2023-05-16T09:16:32.786Z,1.10
2023-05-16T09:19:02.120Z,1.27
2023-05-16T09:21:32.870Z,1.20
2023-05-16T09:24:10.115Z,1.60
2023-05-16T09:26:38.923Z,1.60
2023-05-16T09:29:12.801Z,1.65
2023-05-16T09:31:40.068Z,1.20
2023-05-16T09:34:08.954Z,1.30
2023-05-16T09:36:36.416Z,1.10
2023-05-16T09:39:05.807Z,1.70
2023-05-16T09:41:36.394Z,1.45
2023-05-16T09:44:06.958Z,1.58
2023-05-16T09:46:38.434Z,1.33
2023-05-16T09:49:05.020Z,1.42
2023-05-16T09:51:31.996Z,1.30
2023-05-16T09:54:00.210Z,1.20
2023-05-16T09:56:27.181Z,1.98
2023-05-16T09:58:54.074Z,1.40
2023-05-16T10:01:20.807Z,1.50
2023-05-16T10:03:47.870Z,1.42
2023-05-16T10:06:16.544Z,1.10
2023-05-16T10:08:44.021Z,1.48
2023-05-16T10:11:11.671Z,1.38
2023-05-16T10:13:39.094Z,1.55
2023-05-16T10:16:12.607Z,1.40
2023-05-16T10:18:42.577Z,1.60
2023-05-16T10:21:13.739Z,1.52
2023-05-16T10:23:47.414Z,2.10
2023-05-16T10:26:16.644Z,1.53
2023-05-16T10:28:43.478Z,1.60
2023-05-16T10:31:11.872Z,1.40
2023-05-16T10:33:40.157Z,1.40
2023-05-16T10:36:09.019Z,1.60
2023-05-16T10:38:37.947Z,2.45
2023-05-16T10:41:05.042Z,1.50
2023-05-16T10:43:33.322Z,1.75
2023-05-16T10:46:04.712Z,1.52
2023-05-16T10:48:36.683Z,1.75
2023-05-16T10:51:04.880Z,1.70
2023-05-16T10:53:34.334Z,1.70
2023-05-16T10:56:03.648Z,1.80
2023-05-16T10:58:39.393Z,1.60
2023-05-16T11:01:32.754Z,1.85
2023-05-16T11:04:02.539Z,2.30
2023-05-16T11:06:34.360Z,1.52
2023-05-16T11:09:06.837Z,1.42
2023-05-16T11:11:49.358Z,1.42
2023-05-16T11:14:34.967Z,2.08
2023-05-16T11:17:06.604Z,1.90
2023-05-16T11:19:47.958Z,1.70
2023-05-16T11:22:23.797Z,1.45
2023-05-16T11:24:52.478Z,1.45
2023-05-16T11:27:24.213Z,1.20
2023-05-16T11:29:51.410Z,1.38
2023-05-16T11:32:23.281Z,1.30
2023-05-16T11:34:51.867Z,1.10
2023-05-16T11:37:20.434Z,1.30
2023-05-16T11:39:47.399Z,1.42
2023-05-16T11:42:13.972Z,1.65
2023-05-16T11:44:41.153Z,1.15
2023-05-16T11:47:08.379Z,1.08
2023-05-16T11:49:35.589Z,1.10
2023-05-16T11:52:03.144Z,1.50
2023-05-16T11:54:30.737Z,1.10
2023-05-16T11:56:57.551Z,1.42
2023-05-16T11:59:24.295Z,1.50
2023-05-16T12:01:50.732Z,1.48
2023-05-16T12:04:18.165Z,1.30
2023-05-16T12:06:45.075Z,1.20
2023-05-16T12:09:18.242Z,1.40
2023-05-16T12:11:45.272Z,1.15
2023-05-16T12:14:13.489Z,1.27
2023-05-16T12:16:44.271Z,1.42
2023-05-16T12:19:11.685Z,1.30
2023-05-16T12:21:39.069Z,1.00
2023-05-16T12:24:09.176Z,1.15
2023-05-16T12:26:35.822Z,1.30
2023-05-16T12:29:06.156Z,1.83
2023-05-16T12:31:37.029Z,1.23
2023-05-16T12:34:03.544Z,1.20
2023-05-16T12:36:36.730Z,1.40
2023-05-16T12:39:04.253Z,1.23
2023-05-16T12:41:31.622Z,1.10
2023-05-16T12:44:12.557Z,0.90
2023-05-16T12:46:46.957Z,1.00
2023-05-16T12:49:13.923Z,2.45
2023-05-16T12:51:41.427Z,1.15
2023-05-16T12:54:11.830Z,1.10
2023-05-16T12:56:40.061Z,1.05
2023-05-16T12:59:06.995Z,1.02
2023-05-16T13:01:35.322Z,1.15
2023-05-16T13:04:05.868Z,1.30
2023-05-16T13:06:48.936Z,1.10
2023-05-16T13:09:19.279Z,1.10
2023-05-16T13:11:45.922Z,0.90
2023-05-16T13:14:12.932Z,1.23
2023-05-16T13:16:39.775Z,0.98
2023-05-16T13:19:08.168Z,1.13
2023-05-16T13:21:34.680Z,1.10
2023-05-16T13:24:01.287Z,1.08
2023-05-16T13:26:28.243Z,1.30
2023-05-16T13:28:55.093Z,1.50
2023-05-16T13:31:25.336Z,1.35
2023-05-16T13:33:52.030Z,1.10
2023-05-16T13:36:18.472Z,1.58
2023-05-16T13:38:44.964Z,1.42
2023-05-16T13:41:12.914Z,1.60
2023-05-16T13:43:39.349Z,1.35
2023-05-16T13:46:06.091Z,1.20
2023-05-16T13:48:33.158Z,1.70
2023-05-16T13:50:59.693Z,1.08
2023-05-16T13:53:26.723Z,1.40
2023-05-16T13:55:53.300Z,1.20
2023-05-16T13:58:20.235Z,1.40
2023-05-16T14:00:48.406Z,1.50
2023-05-16T14:03:15.572Z,1.65
2023-05-16T14:05:42.378Z,1.60
2023-05-16T14:08:08.985Z,1.52
2023-05-16T14:10:35.604Z,1.80
2023-05-16T14:13:02.445Z,2.25
2023-05-16T14:15:29.155Z,1.88
2023-05-16T14:17:55.873Z,2.00
2023-05-16T14:20:22.893Z,1.88
2023-05-16T14:22:49.325Z,2.20
2023-05-16T14:25:16.078Z,1.77
2023-05-16T14:27:42.476Z,2.00
2023-05-16T14:30:09.623Z,2.00
2023-05-16T14:32:36.319Z,1.52
2023-05-16T14:35:05.261Z,1.80
2023-05-16T14:37:31.818Z,1.60
2023-05-16T14:39:59.650Z,0.80
2023-05-16T14:42:26.495Z,1.30
2023-05-16T14:44:53.100Z,0.90
2023-05-16T14:47:20.175Z,1.13
2023-05-16T14:49:46.734Z,1.08
2023-05-16T14:52:13.628Z,0.98
2023-05-16T14:54:40.547Z,1.08
2023-05-16T14:57:07.358Z,1.10
2023-05-16T14:59:34.175Z,1.00
2023-05-16T15:02:00.850Z,2.00
2023-05-16T15:04:29.242Z,1.20
2023-05-16T15:06:56.816Z,1.35
2023-05-16T15:09:23.260Z,1.00
2023-05-16T15:11:51.198Z,0.90
2023-05-16T15:14:18.172Z,0.93
2023-05-16T15:16:44.803Z,0.93
2023-05-16T15:19:11.568Z,1.13
2023-05-16T15:21:38.379Z,1.00
2023-05-16T15:24:05.198Z,1.20
2023-05-16T15:26:32.634Z,0.90
2023-05-16T15:28:59.218Z,1.00
2023-05-16T15:31:26.310Z,1.70
2023-05-16T15:33:52.825Z,1.08
2023-05-16T15:36:19.566Z,1.20
2023-05-16T15:38:47.521Z,1.20
2023-05-16T15:41:22.311Z,1.23
2023-05-16T15:43:58.231Z,1.17
2023-05-16T15:46:24.732Z,1.17
2023-05-16T15:48:51.327Z,1.08
2023-05-16T15:51:17.748Z,1.00
2023-05-16T15:53:45.036Z,1.38
2023-05-16T15:56:12.320Z,1.08
2023-05-16T15:58:38.931Z,1.10
2023-05-16T16:01:05.878Z,1.10
2023-05-16T16:03:32.965Z,1.00
2023-05-16T16:05:59.479Z,1.10
2023-05-16T16:08:25.997Z,1.20
2023-05-16T16:10:52.906Z,1.02
2023-05-16T16:13:19.457Z,0.85
2023-05-16T16:15:46.414Z,0.98
2023-05-16T16:18:13.899Z,1.20
2023-05-16T16:20:41.017Z,1.00
2023-05-16T16:23:08.108Z,0.95
2023-05-16T16:25:34.821Z,0.93
2023-05-16T16:28:01.801Z,0.80
2023-05-16T16:30:28.231Z,0.77
2023-05-16T16:32:54.759Z,1.05
2023-05-16T16:35:22.457Z,1.10
2023-05-16T16:38:02.372Z,1.27
2023-05-16T16:40:32.504Z,1.17
2023-05-16T16:42:59.366Z,1.10
2023-05-16T16:45:27.292Z,1.13
2023-05-16T16:47:54.096Z,1.30
2023-05-16T16:50:20.616Z,1.27
2023-05-16T16:52:47.711Z,1.50
2023-05-16T16:55:14.869Z,1.02
2023-05-16T16:57:42.843Z,1.45
2023-05-16T17:00:11.430Z,1.25
2023-05-16T17:02:38.218Z,1.10
2023-05-16T17:05:08.649Z,1.02
2023-05-16T17:07:35.566Z,1.10
2023-05-16T17:10:04.633Z,1.15
2023-05-16T17:12:34.599Z,1.20
2023-05-16T17:15:01.860Z,1.20
2023-05-16T17:17:29.028Z,1.05
2023-05-16T17:19:55.713Z,1.38
2023-05-16T17:22:22.445Z,1.27
2023-05-16T17:24:49.390Z,1.13
2023-05-16T17:27:15.933Z,1.40
2023-05-16T17:29:42.471Z,1.20
2023-05-16T17:32:09.197Z,1.30
2023-05-16T17:34:35.886Z,1.10
2023-05-16T17:37:04.297Z,1.10
2023-05-16T17:39:32.043Z,1.23
2023-05-16T17:41:59.628Z,1.65
2023-05-16T17:44:26.236Z,1.38
2023-05-16T17:46:53.640Z,1.35
2023-05-16T17:49:21.420Z,1.38
2023-05-16T17:51:56.383Z,1.45
2023-05-16T17:54:24.011Z,1.48
2023-05-16T17:56:51.136Z,1.77
2023-05-16T17:59:17.877Z,1.92
2023-05-16T18:01:45.066Z,1.63
2023-05-16T18:04:12.251Z,1.30
2023-05-16T18:06:39.163Z,1.38
2023-05-16T18:09:07.314Z,1.45
2023-05-16T18:11:34.341Z,1.23
2023-05-16T18:14:02.317Z,1.77
2023-05-16T18:16:30.613Z,1.60
2023-05-16T18:18:58.621Z,1.33
2023-05-16T18:21:27.627Z,1.95
2023-05-16T18:23:56.479Z,1.73
2023-05-16T18:26:24.550Z,1.70
2023-05-16T18:28:51.098Z,1.40
2023-05-16T18:31:17.684Z,1.65
2023-05-16T18:33:44.359Z,1.42
2023-05-16T18:36:10.804Z,2.13
2023-05-16T18:38:37.687Z,1.65
2023-05-16T18:41:04.279Z,1.42
2023-05-16T18:43:30.998Z,1.90
2023-05-16T18:45:57.817Z,1.77
2023-05-16T18:48:24.482Z,1.30
2023-05-16T18:50:51.322Z,1.73
2023-05-16T18:53:17.950Z,2.03
2023-05-16T18:55:44.417Z,1.65
2023-05-16T18:58:11.454Z,1.80
2023-05-16T19:00:37.951Z,1.42
2023-05-16T19:03:04.869Z,1.52
2023-05-16T19:05:33.781Z,1.92
2023-05-16T19:08:01.012Z,1.70
2023-05-16T19:10:27.748Z,1.73
2023-05-16T19:12:54.632Z,2.05
2023-05-16T19:15:21.089Z,4.30
2023-05-16T19:17:48.221Z,14.15
2023-05-16T19:20:15.092Z,13.25
2023-05-16T19:22:41.528Z,42.50
2023-05-16T19:25:08.861Z,52.28
2023-05-16T19:27:39.737Z,5.18
2023-05-16T19:30:07.512Z,2.50
2023-05-16T19:32:34.014Z,5.47
2023-05-16T19:35:01.023Z,2.35
2023-05-16T19:37:27.565Z,2.15
2023-05-16T19:39:54.065Z,2.05
2023-05-16T19:42:20.788Z,2.33
2023-05-16T19:44:47.418Z,1.60
2023-05-16T19:47:14.886Z,1.88
2023-05-16T19:49:41.766Z,5.13
2023-05-16T19:52:09.150Z,7.13
2023-05-16T19:54:36.074Z,9.70
2023-05-16T19:57:02.524Z,43.20
2023-05-16T19:59:29.400Z,3.03
2023-05-16T20:01:55.840Z,4.07
2023-05-16T20:04:22.506Z,1.70
2023-05-16T20:06:49.579Z,2.30
2023-05-16T20:09:16.364Z,1.92
2023-05-16T20:11:43.650Z,1.90
2023-05-16T20:14:10.201Z,1.83
2023-05-16T20:16:37.253Z,1.63
2023-05-16T20:19:04.289Z,1.88
2023-05-16T20:21:31.030Z,1.75
2023-05-16T20:23:57.702Z,2.03
2023-05-16T20:26:24.340Z,2.10
2023-05-16T20:28:50.924Z,2.15
2023-05-16T20:31:17.393Z,2.40
2023-05-16T20:33:44.274Z,1.70
2023-05-16T20:36:10.869Z,1.88
2023-05-16T20:38:38.704Z,5.90
2023-05-16T20:41:05.387Z,2.63
2023-05-16T20:43:31.820Z,3.08
2023-05-16T20:45:58.313Z,2.00
2023-05-16T20:48:27.152Z,2.03
2023-05-16T20:50:54.749Z,2.80
2023-05-16T20:53:21.905Z,7.10
2023-05-16T20:55:48.450Z,3.58
2023-05-16T20:58:15.756Z,2.10
2023-05-16T21:00:42.220Z,2.38
2023-05-16T21:03:09.340Z,1.65
2023-05-16T21:05:36.304Z,2.00
2023-05-16T21:08:04.807Z,1.92
2023-05-16T21:10:31.637Z,2.28
2023-05-16T21:12:58.367Z,2.10
2023-05-16T21:15:25.856Z,1.88
2023-05-16T21:17:52.560Z,1.80
2023-05-16T21:20:19.331Z,2.05
2023-05-16T21:22:45.817Z,1.95
2023-05-16T21:25:12.564Z,1.80
2023-05-16T21:27:39.856Z,1.60
2023-05-16T21:30:07.568Z,1.70
2023-05-16T21:32:34.044Z,1.75
2023-05-16T21:35:00.995Z,1.42
2023-05-16T21:37:27.901Z,2.10
2023-05-16T21:39:54.770Z,1.60
2023-05-16T21:42:21.236Z,2.05
2023-05-16T21:44:48.042Z,1.75
2023-05-16T21:47:14.531Z,2.30
2023-05-16T21:49:41.159Z,2.17
2023-05-16T21:52:07.978Z,2.30
2023-05-16T21:54:34.967Z,1.75
2023-05-16T21:57:01.473Z,1.55
2023-05-16T21:59:28.183Z,2.03
2023-05-16T22:01:54.607Z,1.65
2023-05-16T22:04:21.333Z,1.80
2023-05-16T22:06:48.286Z,1.73
2023-05-16T22:09:14.771Z,1.83
2023-05-16T22:11:41.512Z,1.80
2023-05-16T22:14:07.935Z,1.83
2023-05-16T22:16:34.766Z,2.97
2023-05-16T22:19:01.319Z,1.70
2023-05-16T22:21:28.014Z,2.00
2023-05-16T22:23:54.426Z,2.05
2023-05-16T22:26:22.092Z,2.00
2023-05-16T22:28:48.587Z,1.67
2023-05-16T22:31:15.307Z,2.00
2023-05-16T22:33:42.036Z,1.80
2023-05-16T22:36:08.810Z,1.77
2023-05-16T22:38:35.544Z,1.88
2023-05-16T22:41:01.940Z,1.77
2023-05-16T22:43:28.426Z,1.60
2023-05-16T22:45:55.348Z,1.63
2023-05-16T22:48:22.036Z,2.00
2023-05-16T22:50:48.622Z,1.95
2023-05-16T22:53:15.074Z,1.58
2023-05-16T22:55:41.904Z,1.75
2023-05-16T22:58:08.859Z,1.70
2023-05-16T23:00:35.474Z,2.10
2023-05-16T23:03:02.426Z,2.05
2023-05-16T23:05:29.320Z,2.15
2023-05-16T23:07:55.927Z,1.70
2023-05-16T23:10:22.833Z,1.73
2023-05-16T23:12:49.400Z,1.58
2023-05-16T23:15:15.904Z,2.00
2023-05-16T23:17:42.483Z,1.58
2023-05-16T23:20:09.341Z,1.75
2023-05-16T23:22:35.765Z,2.10
2023-05-16T23:25:02.916Z,2.08
2023-05-16T23:27:29.573Z,1.67
2023-05-16T23:29:56.040Z,1.65
2023-05-16T23:32:22.695Z,1.65
2023-05-16T23:34:49.957Z,1.73
2023-05-16T23:37:16.413Z,1.63
2023-05-16T23:39:44.167Z,1.70
2023-05-16T23:42:11.080Z,1.60
2023-05-16T23:44:39.572Z,1.83
2023-05-16T23:47:06.882Z,2.08
2023-05-16T23:49:33.341Z,1.70
2023-05-16T23:52:01.032Z,1.60
2023-05-16T23:54:27.732Z,2.08
2023-05-16T23:56:54.616Z,2.05
2023-05-16T23:59:21.515Z,1.90
